Time;durP1;ratioP1;P1;durP2;ratioP2;P2;SDS_P1;SDS_P2;PMS_P1;PMS_P2;Temp;Humidity;BMP_temperature;BMP_pressure;BME280_temperature;BME280_humidity;BME280_pressure;Samples;Min_cycle;Max_cycle;Signal;HPM_P1;HPM_P2
2023/08/24 00:00:41;;;;;;;18.50;6.80;;;;;;;17.97;100.00;101641.88;5075503;28;20036;-67
2023/08/24 00:03:08;;;;;;;19.98;7.53;;;;;;;18.13;100.00;101638.09;5075443;28;20035;-66
2023/08/24 00:05:36;;;;;;;18.38;6.75;;;;;;;18.11;100.00;101635.44;5075144;28;20032;-66
2023/08/24 00:08:05;;;;;;;19.10;7.32;;;;;;;18.07;100.00;101639.06;5075131;28;20135;-66
2023/08/24 00:10:31;;;;;;;18.95;7.10;;;;;;;18.02;100.00;101635.56;5075320;28;20094;-66
2023/08/24 00:12:56;;;;;;;18.98;7.20;;;;;;;17.89;100.00;101650.00;5075101;28;20024;-66
2023/08/24 00:15:21;;;;;;;18.60;6.97;;;;;;;17.88;100.00;101649.13;5075137;28;20095;-66
2023/08/24 00:17:47;;;;;;;19.27;7.30;;;;;;;17.80;100.00;101655.47;5074930;28;20032;-66
2023/08/24 00:20:13;;;;;;;20.63;7.15;;;;;;;17.87;100.00;101644.66;5074827;28;20083;-66
2023/08/24 00:22:39;;;;;;;18.48;7.00;;;;;;;17.84;100.00;101628.66;5075190;28;20033;-67
2023/08/24 00:25:06;;;;;;;19.77;7.10;;;;;;;17.85;100.00;101626.84;5074855;28;20054;-67
2023/08/24 00:27:31;;;;;;;18.75;7.55;;;;;;;17.83;100.00;101620.66;5074724;28;20032;-66
2023/08/24 00:29:56;;;;;;;19.92;7.50;;;;;;;17.66;100.00;101616.41;5074992;28;20028;-66
2023/08/24 00:32:23;;;;;;;18.92;7.03;;;;;;;17.48;100.00;101622.88;5074713;28;20071;-65
2023/08/24 00:34:48;;;;;;;19.83;7.10;;;;;;;17.37;100.00;101633.69;5074672;28;20098;-66
2023/08/24 00:37:14;;;;;;;18.10;7.43;;;;;;;17.35;100.00;101624.78;5074807;28;20029;-66
2023/08/24 00:39:39;;;;;;;18.33;7.35;;;;;;;17.44;100.00;101626.47;5074457;28;20032;-66
2023/08/24 00:42:05;;;;;;;19.30;7.30;;;;;;;17.42;100.00;101626.50;5074566;28;20430;-70
2023/08/24 00:44:31;;;;;;;19.20;6.95;;;;;;;17.55;100.00;101618.34;5074683;28;20037;-69
2023/08/24 00:46:58;;;;;;;18.23;6.88;;;;;;;17.54;100.00;101601.41;5074353;28;20520;-73
2023/08/24 00:49:24;;;;;;;19.95;7.40;;;;;;;17.56;100.00;101604.97;5074835;28;20093;-73
2023/08/24 00:51:51;;;;;;;18.45;7.10;;;;;;;17.47;100.00;101615.75;5074553;28;20468;-69
2023/08/24 00:54:17;;;;;;;19.08;7.43;;;;;;;17.46;100.00;101616.66;5074252;28;20024;-72
2023/08/24 00:56:43;;;;;;;20.40;7.80;;;;;;;17.33;100.00;101618.59;5074224;28;20108;-72
2023/08/24 00:59:08;;;;;;;19.30;7.70;;;;;;;17.33;100.00;101617.69;5070106;28;20036;-72
2023/08/24 01:01:34;;;;;;;21.52;7.78;;;;;;;17.40;100.00;101614.03;5074155;28;20033;-71
2023/08/24 01:03:59;;;;;;;20.30;7.57;;;;;;;17.33;100.00;101618.59;5073935;28;20493;-69
2023/08/24 01:06:25;;;;;;;19.15;7.68;;;;;;;17.45;100.00;101608.69;5074472;28;20056;-70
2023/08/24 01:08:51;;;;;;;19.05;7.60;;;;;;;17.51;100.00;101606.78;5073843;28;20131;-71
2023/08/24 01:11:26;;;;;;;19.75;7.93;;;;;;;17.57;100.00;101604.03;5073890;28;20106;-71
2023/08/24 01:14:01;;;;;;;20.75;8.70;;;;;;;17.51;100.00;101601.44;5074128;28;20029;-72
2023/08/24 01:16:29;;;;;;;18.98;8.07;;;;;;;17.49;100.00;101623.75;5073654;28;20025;-71
2023/08/24 01:18:59;;;;;;;20.60;8.05;;;;;;;17.26;100.00;101622.25;5073640;28;20028;-71
2023/08/24 01:21:28;;;;;;;19.70;8.23;;;;;;;17.24;100.00;101616.00;5073746;28;20536;-74
2023/08/24 01:24:10;;;;;;;21.65;8.52;;;;;;;17.38;100.00;101606.06;5073866;28;20028;-71
2023/08/24 01:26:36;;;;;;;19.75;7.90;;;;;;;17.40;100.00;101598.91;5073747;28;20025;-73
2023/08/24 01:29:04;;;;;;;21.10;8.60;;;;;;;17.38;100.00;101597.16;5073502;28;20029;-73
2023/08/24 01:31:30;;;;;;;21.17;8.30;;;;;;;17.46;100.00;101602.41;5073464;28;20037;-72
2023/08/24 01:33:55;;;;;;;19.90;8.38;;;;;;;17.39;100.00;101607.81;5073686;28;20056;-74
2023/08/24 01:36:21;;;;;;;18.77;7.60;;;;;;;17.39;100.00;101615.84;5073418;28;20028;-72
2023/08/24 01:39:12;;;;;;;19.75;8.70;;;;;;;17.46;100.00;101619.34;5073441;28;20051;-73
2023/08/24 01:41:39;;;;;;;20.42;8.65;;;;;;;17.55;100.00;101597.84;5073053;28;20044;-70
2023/08/24 01:44:07;;;;;;;21.27;8.85;;;;;;;17.51;100.00;101590.75;5072976;28;20032;-73
2023/08/24 01:46:34;;;;;;;21.98;8.85;;;;;;;17.54;100.00;101597.84;5073156;28;20032;-72
2023/08/24 01:48:59;;;;;;;19.40;8.20;;;;;;;17.54;100.00;101596.06;5073156;28;20056;-73
2023/08/24 01:51:26;;;;;;;19.50;8.15;;;;;;;17.53;100.00;101591.63;5073332;28;20056;-72
2023/08/24 01:53:52;;;;;;;21.08;8.77;;;;;;;17.54;100.00;101596.06;5073076;28;20464;-74
2023/08/24 01:56:17;;;;;;;19.52;8.40;;;;;;;17.63;100.00;101594.19;5073139;28;20021;-73
2023/08/24 01:58:43;;;;;;;19.42;8.68;;;;;;;17.60;100.00;101604.03;5073453;28;20041;-74
2023/08/24 02:01:10;;;;;;;21.52;8.40;;;;;;;17.66;100.00;101616.41;5072979;28;20052;-66
2023/08/24 02:03:35;;;;;;;20.75;8.73;;;;;;;17.63;100.00;101611.09;5072974;28;20028;-65
2023/08/24 02:06:01;;;;;;;20.40;8.30;;;;;;;17.70;100.00;101602.09;5073050;28;20025;-66
2023/08/24 02:08:26;;;;;;;20.35;8.63;;;;;;;17.75;100.00;101610.94;5072776;28;20071;-66
2023/08/24 02:10:52;;;;;;;20.45;9.10;;;;;;;17.78;100.00;101602.88;5073126;28;20382;-66
2023/08/24 02:13:17;;;;;;;19.70;8.63;;;;;;;17.75;100.00;101586.88;5072747;28;20021;-66
2023/08/24 02:15:42;;;;;;;20.13;8.43;;;;;;;17.66;100.00;101581.63;5072794;28;20051;-66
2023/08/24 02:18:08;;;;;;;21.23;8.50;;;;;;;17.69;100.00;101584.31;5072857;28;20074;-66
2023/08/24 02:20:37;;;;;;;20.55;9.13;;;;;;;17.67;100.00;101586.09;5072615;28;20380;-66
2023/08/24 02:23:04;;;;;;;19.40;8.63;;;;;;;17.75;100.00;101602.94;5072777;28;20479;-66
2023/08/24 02:25:29;;;;;;;20.02;9.13;;;;;;;17.68;100.00;101600.34;5071707;28;20028;-66
2023/08/24 02:27:54;;;;;;;21.95;9.18;;;;;;;17.74;100.00;101581.56;5072630;28;20032;-65
2023/08/24 02:30:20;;;;;;;20.65;9.18;;;;;;;17.75;100.00;101584.22;5072525;28;20028;-66
2023/08/24 02:32:45;;;;;;;20.10;9.30;;;;;;;17.76;100.00;101591.31;5072790;28;20115;-65
2023/08/24 02:35:10;;;;;;;20.77;8.90;;;;;;;17.81;100.00;101593.94;5072626;28;20376;-66
2023/08/24 02:37:36;;;;;;;20.63;9.23;;;;;;;17.82;100.00;101589.47;5072423;28;20072;-66
2023/08/24 02:40:01;;;;;;;20.67;10.27;;;;;;;17.88;100.00;101589.38;5072693;28;20032;-66
2023/08/24 02:42:30;;;;;;;21.52;9.95;;;;;;;17.86;100.00;101575.16;5072610;28;20028;-66
2023/08/24 02:44:55;;;;;;;20.90;10.13;;;;;;;17.72;100.00;101567.31;5071149;28;20388;-67
2023/08/24 02:47:20;;;;;;;22.67;10.40;;;;;;;17.58;100.00;101554.16;5072789;28;20028;-66
2023/08/24 02:49:46;;;;;;;21.77;10.57;;;;;;;17.48;100.00;101550.72;5072399;28;20111;-66
2023/08/24 02:52:11;;;;;;;21.98;10.75;;;;;;;17.46;100.00;101539.16;5072446;28;20144;-66
2023/08/24 02:54:36;;;;;;;21.58;10.75;;;;;;;17.48;100.00;101537.34;5072661;28;20464;-66
2023/08/24 02:57:02;;;;;;;22.08;11.18;;;;;;;17.53;100.00;101531.94;5075644;28;20493;-66
2023/08/24 02:59:27;;;;;;;22.52;10.90;;;;;;;17.60;100.00;101525.59;5076639;28;20036;-66
2023/08/24 03:01:53;;;;;;;20.45;10.68;;;;;;;17.54;100.00;101513.19;5076444;28;20463;-66
2023/08/24 03:04:19;;;;;;;21.50;10.98;;;;;;;17.48;100.00;101507.94;5076282;28;20036;-66
2023/08/24 03:06:44;;;;;;;22.75;10.88;;;;;;;17.48;100.00;101485.69;5075336;28;20119;-65
2023/08/24 03:09:10;;;;;;;22.30;11.02;;;;;;;17.37;100.00;101459.09;5071920;28;20063;-66
2023/08/24 03:11:35;;;;;;;22.70;11.32;;;;;;;17.22;100.00;101450.41;5076317;28;20391;-65
2023/08/24 03:14:00;;;;;;;23.85;11.63;;;;;;;17.15;100.00;101442.50;5076398;28;20024;-66
2023/08/24 03:16:26;;;;;;;22.88;11.82;;;;;;;17.13;100.00;101455.88;5091804;28;20028;-66
2023/08/24 03:18:52;;;;;;;22.80;11.68;;;;;;;17.13;100.00;101455.88;5076102;28;20032;-66
2023/08/24 03:21:17;;;;;;;22.83;12.30;;;;;;;17.10;100.00;101457.72;5076292;28;20031;-66
2023/08/24 03:23:42;;;;;;;23.73;12.65;;;;;;;17.13;100.00;101449.66;5076082;28;20063;-66
2023/08/24 03:26:08;;;;;;;23.63;12.57;;;;;;;17.11;100.00;101435.41;5075988;28;20024;-65
2023/08/24 03:28:33;;;;;;;23.65;12.88;;;;;;;17.14;100.00;101430.94;5076037;28;20027;-65
2023/08/24 03:31:00;;;;;;;24.05;12.88;;;;;;;17.17;100.00;101427.31;5075931;28;20037;-66
2023/08/24 03:33:26;;;;;;;23.92;13.68;;;;;;;17.16;100.00;101423.78;5075790;28;20111;-65
2023/08/24 03:35:51;;;;;;;24.77;14.02;;;;;;;17.20;100.00;101408.59;5076027;28;20052;-66
2023/08/24 03:38:17;;;;;;;24.17;14.50;;;;;;;17.21;100.00;101413.03;5075737;28;20128;-65
2023/08/24 03:40:42;;;;;;;26.83;15.27;;;;;;;17.25;100.00;101404.94;5075911;28;20031;-66
2023/08/24 03:43:08;;;;;;;27.63;15.38;;;;;;;17.24;100.00;101399.59;5075644;28;20025;-66
2023/08/24 03:45:33;;;;;;;25.58;14.90;;;;;;;17.31;100.00;101395.94;5075597;28;20490;-65
2023/08/24 03:47:58;;;;;;;26.10;15.20;;;;;;;17.35;100.00;101400.34;5075973;28;20479;-66
2023/08/24 03:50:24;;;;;;;25.77;15.80;;;;;;;17.36;100.00;101404.78;5075523;28;20486;-65
2023/08/24 03:52:50;;;;;;;24.95;15.45;;;;;;;17.45;100.00;101408.25;5075380;28;20024;-66
2023/08/24 03:55:16;;;;;;;23.95;14.63;;;;;;;17.50;100.00;101415.25;5075642;28;20040;-66
2023/08/24 03:57:41;;;;;;;24.92;14.52;;;;;;;17.58;100.00;101418.69;5075268;28;20028;-65
2023/08/24 04:00:11;;;;;;;25.67;14.68;;;;;;;17.67;100.00;101420.34;5075267;28;20115;-66
2023/08/24 04:02:43;;;;;;;26.77;15.60;;;;;;;17.72;100.00;101433.63;5074224;28;20024;-66
2023/08/24 04:05:09;;;;;;;;;;;;;;;17.78;100.00;101433.56;5075760;28;20036;-65
2023/08/24 04:07:36;;;;;;;25.55;15.43;;;;;;;17.75;100.00;101429.13;5074803;28;19939;-66
2023/08/24 04:10:04;;;;;;;24.38;15.10;;;;;;;17.75;100.00;101426.47;5074117;28;20072;-66
2023/08/24 04:12:30;;;;;;;25.83;15.60;;;;;;;17.78;100.00;101429.09;5074236;28;20482;-65
2023/08/24 04:14:57;;;;;;;25.73;15.77;;;;;;;17.72;100.00;101429.19;5074255;28;20033;-66
2023/08/24 04:17:23;;;;;;;26.27;14.88;;;;;;;17.76;100.00;101436.22;5074241;28;20028;-66
2023/08/24 04:19:48;;;;;;;25.65;15.60;;;;;;;17.74;100.00;101442.53;5073946;28;20031;-66
2023/08/24 04:22:14;;;;;;;25.45;15.23;;;;;;;17.73;100.00;101424.72;5073840;28;20032;-62
2023/08/24 04:24:39;;;;;;;26.27;15.35;;;;;;;17.73;100.00;101430.06;5073961;28;20078;-62
2023/08/24 04:27:04;;;;;;;26.40;16.00;;;;;;;17.72;100.00;101434.53;5073785;28;20032;-68
2023/08/24 04:29:30;;;;;;;26.02;16.50;;;;;;;17.74;100.00;101438.06;5073645;28;20035;-67
2023/08/24 04:31:55;;;;;;;25.60;16.05;;;;;;;17.76;100.00;101440.69;5073932;28;20029;-71
2023/08/24 04:34:20;;;;;;;26.52;16.65;;;;;;;17.75;100.00;101433.56;5073856;28;20039;-64
2023/08/24 04:36:46;;;;;;;26.63;16.88;;;;;;;17.71;100.00;101443.44;5073581;28;20107;-65
2023/08/24 04:39:11;;;;;;;26.35;17.40;;;;;;;17.66;100.00;101439.94;5073928;28;20060;-67
2023/08/24 04:41:36;;;;;;;26.67;17.50;;;;;;;17.60;100.00;101435.63;5073591;28;20386;-67
2023/08/24 04:44:02;;;;;;;27.05;16.92;;;;;;;17.54;100.00;101438.34;5073722;28;20060;-62
2023/08/24 04:46:27;;;;;;;26.98;17.23;;;;;;;17.47;100.00;101438.47;5073631;28;20025;-65
2023/08/24 04:48:52;;;;;;;27.77;17.42;;;;;;;17.34;100.00;101437.78;5073373;28;20495;-68
2023/08/24 04:51:18;;;;;;;27.48;17.83;;;;;;;17.30;100.00;101439.63;5073509;28;20534;-68
2023/08/24 04:53:43;;;;;;;28.80;17.92;;;;;;;17.19;100.00;101436.22;5089004;28;20029;-69
2023/08/24 04:56:08;;;;;;;26.63;17.48;;;;;;;17.15;100.00;101437.16;5073272;28;20028;-67
2023/08/24 04:58:34;;;;;;;28.10;18.67;;;;;;;17.11;100.00;101430.06;5073389;28;20036;-72
2023/08/24 05:00:59;;;;;;;28.52;19.05;;;;;;;17.08;100.00;101437.25;5073232;28;20114;-70
2023/08/24 05:03:25;;;;;;;28.63;18.95;;;;;;;17.06;100.00;101439.03;5073200;28;20048;-72
2023/08/24 05:05:50;;;;;;;28.27;19.08;;;;;;;17.04;100.00;101437.31;5073593;28;20090;-75
2023/08/24 05:08:15;;;;;;;28.00;19.02;;;;;;;17.03;100.00;101436.41;5034877;28;1084626;-68
2023/08/24 05:10:41;;;;;;;28.55;19.52;;;;;;;16.99;100.00;101441.81;5074010;28;20127;-70
2023/08/24 05:13:06;;;;;;;29.52;19.33;;;;;;;17.02;100.00;101448.00;5074265;28;20024;-68
2023/08/24 05:15:32;;;;;;;27.35;19.30;;;;;;;17.00;100.00;101444.47;5073789;28;20028;-68
2023/08/24 05:17:59;;;;;;;29.75;19.98;;;;;;;16.99;100.00;101445.34;5071946;28;20028;-71
2023/08/24 05:20:25;;;;;;;28.00;19.33;;;;;;;16.99;100.00;101448.03;5073496;28;20475;-69
2023/08/24 05:22:50;;;;;;;27.58;18.80;;;;;;;17.03;100.00;101446.22;5073747;28;20032;-68
2023/08/24 05:25:16;;;;;;;28.95;20.02;;;;;;;17.06;100.00;101438.16;5073587;28;20482;-68
2023/08/24 05:27:42;;;;;;;28.35;20.05;;;;;;;17.13;100.00;101429.16;5069725;28;20032;-69
2023/08/24 05:30:07;;;;;;;28.58;20.15;;;;;;;17.13;100.00;101418.47;5073600;28;20518;-68
2023/08/24 05:32:33;;;;;;;28.85;20.08;;;;;;;17.22;100.00;101412.13;5073454;28;20032;-68
2023/08/24 05:34:59;;;;;;;30.33;20.30;;;;;;;17.23;100.00;101419.25;5073677;28;20215;-70
2023/08/24 05:37:24;;;;;;;30.02;20.63;;;;;;;17.22;100.00;101418.34;5073433;28;20515;-68
2023/08/24 05:39:49;;;;;;;30.60;20.73;;;;;;;17.35;100.00;101419.03;5073393;28;20033;-70
2023/08/24 05:42:15;;;;;;;29.98;21.35;;;;;;;17.36;100.00;101410.13;5073634;28;20107;-68
2023/08/24 05:44:40;;;;;;;28.95;21.58;;;;;;;17.39;100.00;101409.22;5073223;28;20115;-68
2023/08/24 05:47:06;;;;;;;29.55;22.08;;;;;;;17.42;100.00;101406.50;5073682;28;20033;-68
2023/08/24 05:49:32;;;;;;;29.88;22.23;;;;;;;17.37;100.00;101403.00;5073093;28;20079;-69
2023/08/24 05:51:57;;;;;;;30.42;22.42;;;;;;;17.39;100.00;101412.75;5073031;28;20017;-69
2023/08/24 05:54:22;;;;;;;31.17;22.40;;;;;;;17.39;100.00;101402.06;5073278;28;20104;-69
2023/08/24 05:56:48;;;;;;;29.80;22.70;;;;;;;17.42;100.00;101398.47;5073027;28;20074;-70
2023/08/24 05:59:14;;;;;;;30.15;22.60;;;;;;;17.45;100.00;101389.53;5072989;28;20036;-74
2023/08/24 06:01:41;;;;;;;29.88;22.73;;;;;;;17.53;100.00;101385.84;5073495;28;20035;-73
2023/08/24 06:04:10;;;;;;;29.40;22.40;;;;;;;17.56;100.00;101384.88;5072880;28;20028;-68
2023/08/24 06:06:36;;;;;;;31.02;22.35;;;;;;;17.57;100.00;101371.47;5072280;28;20115;-69
2023/08/24 06:09:04;;;;;;;29.33;22.38;;;;;;;17.62;100.00;101368.75;5072727;28;20166;-62
2023/08/24 06:11:30;;;;;;;29.98;22.60;;;;;;;17.69;100.00;101354.38;5072165;28;20154;-65
2023/08/24 06:13:55;;;;;;;30.90;22.90;;;;;;;17.73;100.00;101342.69;5072959;28;20045;-65
2023/08/24 06:16:21;;;;;;;30.85;22.90;;;;;;;17.73;100.00;101334.69;5072808;28;20115;-62
2023/08/24 06:18:46;;;;;;;29.50;22.52;;;;;;;17.77;100.00;101347.09;5072463;28;20028;-63
2023/08/24 06:21:12;;;;;;;30.92;22.60;;;;;;;17.85;100.00;101348.75;5072564;28;20043;-61
2023/08/24 06:23:38;;;;;;;30.02;22.55;;;;;;;17.93;100.00;101352.22;5072270;28;20028;-63
2023/08/24 06:26:04;;;;;;;30.48;22.92;;;;;;;17.98;100.00;101355.66;5072497;28;20036;-65
2023/08/24 06:28:30;;;;;;;30.23;22.70;;;;;;;18.04;100.00;101354.69;5072402;28;20028;-68
2023/08/24 06:30:55;;;;;;;31.30;22.52;;;;;;;18.14;100.00;101369.63;5072749;28;20032;-69
2023/08/24 06:33:21;;;;;;;30.27;22.33;;;;;;;18.20;100.00;101369.56;5072608;28;20025;-66
2023/08/24 06:35:46;;;;;;;32.95;22.98;;;;;;;18.27;100.00;101365.81;5072137;28;20036;-64
2023/08/24 06:38:12;;;;;;;35.80;23.23;;;;;;;18.37;100.00;101357.63;5068536;28;20034;-65
2023/08/24 06:40:39;;;;;;;31.83;22.50;;;;;;;18.43;100.00;101363.72;5072321;28;20111;-69
2023/08/24 06:43:04;;;;;;;28.83;21.63;;;;;;;18.52;100.00;101356.44;5072775;28;20028;-68
2023/08/24 06:45:31;;;;;;;29.52;22.17;;;;;;;18.57;100.00;101355.41;5072325;28;20388;-69
2023/08/24 06:47:56;;;;;;;30.58;22.38;;;;;;;18.69;100.00;101356.94;5071889;28;20033;-67
2023/08/24 06:50:22;;;;;;;30.02;22.13;;;;;;;18.77;100.00;101351.41;5072442;28;20048;-70
2023/08/24 06:52:47;;;;;;;28.23;20.92;;;;;;;18.86;100.00;101356.63;5072211;28;20029;-68
2023/08/24 06:55:13;;;;;;;30.25;21.50;;;;;;;18.97;100.00;101354.59;5072298;28;20089;-68
2023/08/24 06:57:38;;;;;;;28.17;20.98;;;;;;;19.07;100.00;101355.25;5072338;28;20028;-68
2023/08/24 07:00:08;;;;;;;28.83;21.40;;;;;;;19.21;100.00;101356.72;5071803;28;20060;-69
2023/08/24 07:02:37;;;;;;;27.60;20.42;;;;;;;19.31;100.00;101350.25;5072306;28;20028;-72
2023/08/24 07:05:08;;;;;;;27.85;19.67;;;;;;;19.45;100.00;101355.25;5072334;28;20111;-68
2023/08/24 07:07:34;;;;;;;26.90;18.33;;;;;;;19.56;100.00;101344.28;5072076;28;20025;-71
2023/08/24 07:09:59;;;;;;;26.45;17.83;;;;;;;19.67;100.00;101334.16;5071914;28;20510;-70
2023/08/24 07:12:24;;;;;;;28.52;17.95;;;;;;;19.80;100.00;101332.06;5071898;28;20032;-68
2023/08/24 07:14:50;;;;;;;27.52;16.98;;;;;;;19.91;100.00;101326.44;5072051;28;20133;-70
2023/08/24 07:17:15;;;;;;;26.60;16.67;;;;;;;20.01;100.00;101315.38;5071928;28;20031;-69
2023/08/24 07:19:40;;;;;;;26.33;16.13;;;;;;;20.10;100.00;101322.31;5071962;28;20028;-69
2023/08/24 07:22:06;;;;;;;27.25;16.80;;;;;;;20.19;100.00;101316.66;5072024;28;20117;-67
2023/08/24 07:24:33;;;;;;;24.83;16.00;;;;;;;20.31;100.00;101312.75;5071467;28;20119;-67
2023/08/24 07:26:59;;;;;;;25.35;16.27;;;;;;;20.46;100.00;101319.50;5072472;28;20037;-73
2023/08/24 07:29:24;;;;;;;24.08;15.38;;;;;;;20.60;100.00;101318.19;5071802;28;20078;-72
2023/08/24 07:31:49;;;;;;;25.63;15.73;;;;;;;20.75;100.00;101315.09;5072032;28;20555;-75
2023/08/24 07:34:15;;;;;;;25.35;15.02;;;;;;;20.87;100.00;101309.31;5072212;28;20089;-69
2023/08/24 07:36:42;;;;;;;24.75;15.70;;;;;;;21.05;100.00;101304.28;5069827;28;20056;-70
2023/08/24 07:39:08;;;;;;;24.42;14.38;;;;;;;21.33;100.00;101309.63;5071710;28;20036;-63
2023/08/24 07:41:33;;;;;;;25.70;14.70;;;;;;;21.54;100.00;101308.09;5072136;28;20082;-62
2023/08/24 07:43:58;;;;;;;24.75;14.63;;;;;;;21.79;100.00;101303.66;5075213;28;20502;-64
2023/08/24 07:46:24;;;;;;;25.40;14.43;;;;;;;22.05;100.00;101305.44;5075509;28;20057;-61
2023/08/24 07:48:50;;;;;;;24.25;14.55;;;;;;;22.31;100.00;101301.78;5075215;28;20107;-62
2023/08/24 07:51:15;;;;;;;23.52;13.73;;;;;;;22.47;100.00;101307.50;5075438;28;20120;-61
2023/08/24 07:53:40;;;;;;;25.58;13.85;;;;;;;22.66;100.00;101312.13;5075484;28;20361;-62
2023/08/24 07:56:06;;;;;;;23.50;13.82;;;;;;;22.81;100.00;101304.34;5075287;28;20040;-63
2023/08/24 07:58:32;;;;;;;23.15;13.07;;;;;;;23.00;100.00;101310.81;5075065;28;20028;-63
2023/08/24 08:00:58;;;;;;;22.73;12.82;;;;;;;23.15;100.00;101316.50;5074847;28;20387;-65
2023/08/24 08:03:24;;;;;;;24.80;13.45;;;;;;;23.26;100.00;101324.16;5075290;28;20357;-66
2023/08/24 08:05:49;;;;;;;23.58;13.13;;;;;;;23.42;100.00;101328.91;5073863;28;20058;-71
2023/08/24 08:08:14;;;;;;;24.25;13.13;;;;;;;23.63;100.00;101316.31;5075230;28;20064;-67
2023/08/24 08:10:40;;;;;;;26.30;13.27;;;;;;;23.87;100.00;101316.22;5075401;28;20071;-67
2023/08/24 08:13:07;;;;;;;23.67;12.70;;;;;;;24.08;100.00;101312.56;5075311;28;20031;-68
2023/08/24 08:15:32;;;;;;;23.70;12.68;;;;;;;24.32;100.00;101320.53;5075483;28;20100;-71
2023/08/24 08:17:57;;;;;;;23.45;12.70;;;;;;;24.50;100.00;101307.97;5074983;28;20024;-67
2023/08/24 08:20:23;;;;;;;22.95;12.40;;;;;;;24.73;100.00;101304.22;5075141;28;20032;-70
2023/08/24 08:22:48;;;;;;;22.85;12.10;;;;;;;24.92;100.00;101298.81;5075481;28;20032;-69
2023/08/24 08:25:14;;;;;;;24.15;12.25;;;;;;;25.03;100.00;101291.03;5074847;28;20444;-64
2023/08/24 08:27:39;;;;;;;22.77;11.70;;;;;;;25.18;100.00;101285.81;5074991;28;20064;-68
2023/08/24 08:30:05;;;;;;;22.48;12.00;;;;;;;25.27;100.00;101290.75;5074702;28;20032;-68
2023/08/24 08:32:31;;;;;;;23.65;11.68;;;;;;;25.28;100.00;101283.50;5074597;28;20111;-69
2023/08/24 08:35:00;;;;;;;23.33;11.05;;;;;;;25.37;100.00;101292.09;5074876;28;20028;-68
2023/08/24 08:37:25;;;;;;;22.98;12.00;;;;;;;25.37;100.00;101274.97;5075105;28;20044;-69
2023/08/24 08:39:50;;;;;;;22.63;11.93;;;;;;;25.46;100.00;101265.53;5074587;28;20034;-67
2023/08/24 08:42:16;;;;;;;23.23;11.40;;;;;;;25.50;100.00;101269.78;5074829;28;20037;-68
2023/08/24 08:44:45;;;;;;;21.83;11.55;;;;;;;25.64;100.00;101261.84;5074508;28;20110;-68
2023/08/24 08:47:11;;;;;;;22.35;11.20;;;;;;;25.60;100.00;101254.84;5073119;28;20455;-69
2023/08/24 08:49:38;;;;;;;22.67;11.63;;;;;;;25.62;100.00;101249.34;5074660;28;20031;-68
2023/08/24 08:52:05;;;;;;;22.02;11.18;;;;;;;25.75;100.00;101240.50;5074584;28;20052;-68
2023/08/24 08:54:30;;;;;;;22.25;11.38;;;;;;;25.93;100.00;101230.53;5073017;28;20029;-69
2023/08/24 08:56:56;;;;;;;23.20;12.60;;;;;;;26.25;100.00;101224.31;5074433;28;20103;-69
2023/08/24 08:59:22;;;;;;;23.23;12.10;;;;;;;26.49;100.00;101218.47;5074109;28;20191;-68
2023/08/24 09:01:50;;;;;;;23.25;12.68;;;;;;;26.59;100.00;101212.44;5074305;28;20131;-69
2023/08/24 09:04:16;;;;;;;23.77;12.27;;;;;;;26.79;100.00;101203.22;5070187;28;20082;-69
2023/08/24 09:06:42;;;;;;;23.13;12.55;;;;;;;27.05;100.00;101203.47;5074125;28;20476;-69
2023/08/24 09:09:07;;;;;;;23.17;12.35;;;;;;;27.23;100.00;101187.06;5073814;28;20052;-69
2023/08/24 09:11:33;;;;;;;22.13;11.77;;;;;;;27.45;100.00;101181.22;5074132;28;20029;-70
2023/08/24 09:13:59;;;;;;;22.02;12.13;;;;;;;27.54;100.00;101174.34;5073973;28;20043;-69
2023/08/24 09:16:29;;;;;;;23.55;11.73;;;;;;;27.57;100.00;101182.34;5073784;28;20031;-67
2023/08/24 09:18:54;;;;;;;24.13;12.07;;;;;;;27.59;100.00;101161.38;5073957;28;20028;-69
2023/08/24 09:21:19;;;;;;;22.70;12.50;;;;;;;27.50;100.00;101161.97;5073710;28;20090;-62
2023/08/24 09:23:53;;;;;;;23.05;12.88;;;;;;;27.44;100.00;101155.94;5073734;28;20043;-64
2023/08/24 09:26:33;;;;;;;21.17;11.55;;;;;;;27.34;100.00;101152.06;5070104;28;20055;-67
2023/08/24 09:28:59;;;;;;;23.10;12.13;;;;;;;27.41;100.00;101153.41;5071376;28;20028;-63
2023/08/24 09:31:38;;;;;;;23.55;12.23;;;;;;;27.55;100.00;101157.13;5073572;28;20031;-63
2023/08/24 09:34:03;;;;;;;22.73;12.32;;;;;;;27.66;100.00;101169.03;5073447;28;20062;-66
2023/08/24 09:36:33;;;;;;;22.33;12.02;;;;;;;27.72;100.00;101175.06;5073465;28;20036;-64
2023/08/24 09:38:59;;;;;;;22.73;12.10;;;;;;;27.88;100.00;101180.41;5072694;28;20035;-68
2023/08/24 09:41:40;;;;;;;22.88;11.45;;;;;;;28.11;100.00;101188.00;5073016;28;20024;-64
2023/08/24 09:44:07;;;;;;;22.60;11.20;;;;;;;28.26;100.00;101207.00;5069922;28;20063;-66
2023/08/24 09:46:34;;;;;;;22.50;12.00;;;;;;;27.95;100.00;101211.66;5072927;28;20025;-64
2023/08/24 09:49:01;;;;;;;21.80;11.00;;;;;;;27.80;100.00;101211.63;5073260;28;20035;-63
2023/08/24 09:51:27;;;;;;;23.05;10.88;;;;;;;27.78;100.00;101212.69;5073271;28;20035;-62
2023/08/24 09:53:59;;;;;;;23.50;11.90;;;;;;;27.75;100.00;101199.31;5072982;28;20020;-62
2023/08/24 09:56:27;;;;;;;22.88;11.82;;;;;;;27.75;100.00;101211.03;5073351;28;20115;-64
2023/08/24 09:58:53;;;;;;;24.70;11.43;;;;;;;27.55;100.00;101216.84;5072946;28;20035;-67
2023/08/24 10:01:20;;;;;;;21.55;10.88;;;;;;;27.19;100.00;101213.53;5073023;28;20040;-63
2023/08/24 10:03:46;;;;;;;22.83;11.43;;;;;;;26.98;100.00;101221.09;5073190;28;20050;-65
2023/08/24 10:06:13;;;;;;;22.35;10.60;;;;;;;26.89;100.00;101233.34;5071397;28;20138;-64
2023/08/24 10:08:54;;;;;;;22.10;10.27;;;;;;;27.01;100.00;101239.03;5072773;28;20085;-63
2023/08/24 10:11:25;;;;;;;23.58;10.93;;;;;;;27.00;100.00;101238.16;5072717;28;20079;-69
2023/08/24 10:14:15;;;;;;;22.90;10.90;;;;;;;27.10;100.00;101250.22;5073099;28;20096;-68
2023/08/24 10:16:42;;;;;;;21.17;11.15;;;;;;;26.88;100.00;101253.31;5070333;28;20120;-66
2023/08/24 10:19:08;;;;;;;23.17;11.02;;;;;;;26.70;100.00;101243.53;5072515;28;20032;-68
2023/08/24 10:21:36;;;;;;;22.58;10.60;;;;;;;26.52;100.00;101230.03;5072741;28;20087;-69
2023/08/24 10:24:02;;;;;;;22.63;11.23;;;;;;;26.31;100.00;101223.97;5072924;28;20067;-69
2023/08/24 10:26:27;;;;;;;22.20;10.70;;;;;;;26.16;100.00;101223.00;5072622;28;20055;-69
2023/08/24 10:28:53;;;;;;;23.05;11.18;;;;;;;25.94;100.00;101225.97;5072585;28;20028;-69
2023/08/24 10:31:20;;;;;;;23.00;11.18;;;;;;;25.84;100.00;101222.88;5072840;28;20028;-68
2023/08/24 10:33:46;;;;;;;20.88;10.57;;;;;;;25.79;100.00;101232.19;5072544;28;20107;-68
2023/08/24 10:36:16;;;;;;;21.98;10.50;;;;;;;25.67;100.00;101241.84;5072708;28;20057;-68
2023/08/24 10:38:42;;;;;;;22.40;11.23;;;;;;;25.60;100.00;101235.00;5072706;28;20468;-69
2023/08/24 10:41:08;;;;;;;21.05;10.93;;;;;;;25.48;100.00;101242.81;5072772;28;20162;-69
2023/08/24 10:43:40;;;;;;;21.15;9.98;;;;;;;25.26;100.00;101248.44;5072600;28;20035;-68
2023/08/24 10:46:15;;;;;;;20.73;8.07;;;;;;;25.11;100.00;101254.63;5072519;28;20055;-68
2023/08/24 10:48:44;;;;;;;20.08;6.35;;;;;;;24.91;100.00;101245.66;5072618;28;20036;-68
2023/08/24 10:51:21;;;;;;;19.27;6.55;;;;;;;24.71;100.00;101247.53;5072347;28;20024;-67
2023/08/24 10:53:58;;;;;;;19.23;6.28;;;;;;;24.65;100.00;101239.72;5072267;28;20024;-69
2023/08/24 10:56:38;;;;;;;18.98;6.40;;;;;;;24.70;100.00;101234.97;5071107;28;20025;-69
2023/08/24 10:59:14;;;;;;;19.25;6.90;;;;;;;24.75;100.00;101239.28;5068804;28;20472;-69
2023/08/24 11:01:54;;;;;;;21.63;7.95;;;;;;;24.71;100.00;101225.91;5072774;28;20020;-68